Detall de PIREP

Printer-friendly versionPDF version

[2015/07/03 08:38:00]
Flight IATA:CT1005
Pilot Number:011
Company ICAO:CAT
Aircraft Type:B738/F
PAX:160
Departing Airport: EPGD
Destination Airport: LPPR
Alternate Airport:LPPT
Online: VATSIM
Route:DEXIR T671 VEKON L730 ALUKA DCT TADUV UL87 ERETO UZ715 ANELA UN869 TBO UN995 PPN UN976 ZMR UL155 IBERO
Flight Level:F400
No Slew and time accel
No pause
Crash detect
Detect pilot in Cockpit between each 30 and 45 minutes
08:38 Zero fuel Weight: 139991 Lbs, Fuel Weight: 25899 Lbs
08:38 VATSIM:EPGD 030830Z 17007KT CAVOK 24/12 Q1030
08:38 VATSIM:LPPR 030830Z 23004KT 180V300 9999 SCT013 19/15 Q1018
08:41 Parking Brakes off
08:51 Take-off
08:51 Take off Weight: 164952 Lbs
08:51 Wind: 167º @ 007 Knots Heading: 113º
08:51 POS N54º 22´ 25´´ E018º 28´ 52´´
08:51 Gear Up: 165 Knots
08:51 Flaps:5 at 165 Knots
08:52 Flaps:4 at 202 Knots
08:53 Flaps:3 at 218 Knots
08:53 Flaps:2 at 230 Knots
08:53 Flaps:0 at 230 Knots
09:06 Wind:127º@025 Knots Heading: 232º Ground Speed: 398 Knots Altitude 31492 ft
09:15 TOC
09:15 Fuel Weight: 20516 Lb
09:21 Wind:123º@030 Knots Heading: 248º Ground Speed: 481 Knots Altitude 40383 ft
09:36 Wind:312º@024 Knots Heading: 219º Ground Speed: 472 Knots Altitude 40344 ft
09:51 Wind:139º@031 Knots Heading: 224º Ground Speed: 468 Knots Altitude 40357 ft
10:06 Wind:141º@004 Knots Heading: 234º Ground Speed: 474 Knots Altitude 40331 ft
10:21 Wind:040º@009 Knots Heading: 232º Ground Speed: 476 Knots Altitude 40367 ft
10:36 Wind:180º@038 Knots Heading: 231º Ground Speed: 453 Knots Altitude 40291 ft
10:51 Wind:135º@059 Knots Heading: 231º Ground Speed: 486 Knots Altitude 40288 ft
11:06 Wind:058º@023 Knots Heading: 222º Ground Speed: 493 Knots Altitude 40164 ft
11:21 Wind:085º@054 Knots Heading: 249º Ground Speed: 510 Knots Altitude 40147 ft
11:36 Wind:199º@044 Knots Heading: 243º Ground Speed: 448 Knots Altitude 40203 ft
11:39 TOD
11:39 Fuel Weight: 9489 Lb
11:51 Wind:203º@030 Knots Heading: 258º Ground Speed: 365 Knots Altitude 19448 ft
12:03 Flaps:1 at 219 Knots
12:03 Flaps:2 at 217 Knots
12:04 Flaps:3 at 198 Knots
12:05 Flaps:4 at 184 Knots
12:05 Flaps:5 at 170 Knots
12:06 Wind:222º@013 Knots Heading: 263º Ground Speed: 167 Knots Altitude 3041 ft
12:06 Flaps:6 at 162 Knots
12:06 Gear Down: 162 Knots
12:07 Flaps:7 at 154 Knots
12:08 Flaps:8 at 147 Knots
12:15 TouchDown:Rate -397 ft/min Speed: 116 Knots
12:15 VATSIM:LPPR 031200Z 22008KT 180V260 9999 FEW015 21/14 Q1019
12:15 Land
12:15 Wind:217º@008 Knots
12:15 Heading: 170º
12:15 Flight Duration: 03:24
12:15 Landing Weight: 146976 Lbs
12:15 POS N41º 15´ 00´´ W008º 40´ 54´´
12:17 Parking brakes on
12:17 Block to Block Duration: 03:36
12:17 Final Fuel: 6911 Lbls
12:17 Spent Fuel: 18988 Lbls
12:17 Flight Length: 1344 NM
12:17 TOD Land Length: 173 NM

Exportar CSV

Powered by Drupal - Modified by Danger4k